sensor_id;sensor_type;location;lat;lon;timestamp;temperature;humidity
10433;DHT22;5263;48.680;9.004;2022-08-19T00:01:44;19.80;99.90
10433;DHT22;5263;48.680;9.004;2022-08-19T00:04:12;19.80;99.90
10433;DHT22;5263;48.680;9.004;2022-08-19T00:06:39;19.70;99.90
10433;DHT22;5263;48.680;9.004;2022-08-19T00:09:08;19.80;99.90
10433;DHT22;5263;48.680;9.004;2022-08-19T00:11:35;19.70;99.90
10433;DHT22;5263;48.680;9.004;2022-08-19T00:14:04;19.70;99.90
10433;DHT22;5263;48.680;9.004;2022-08-19T00:16:30;19.80;99.90
10433;DHT22;5263;48.680;9.004;2022-08-19T00:18:55;19.80;99.90
10433;DHT22;5263;48.680;9.004;2022-08-19T00:21:23;19.60;99.90
10433;DHT22;5263;48.680;9.004;2022-08-19T00:23:49;19.70;99.90
10433;DHT22;5263;48.680;9.004;2022-08-19T00:26:14;19.70;99.90
10433;DHT22;5263;48.680;9.004;2022-08-19T00:28:40;19.70;99.90
10433;DHT22;5263;48.680;9.004;2022-08-19T00:31:07;19.80;99.90
10433;DHT22;5263;48.680;9.004;2022-08-19T00:33:33;19.80;99.90
10433;DHT22;5263;48.680;9.004;2022-08-19T00:36:04;19.70;99.90
10433;DHT22;5263;48.680;9.004;2022-08-19T00:38:30;19.70;99.90
10433;DHT22;5263;48.680;9.004;2022-08-19T00:40:56;19.70;99.90
10433;DHT22;5263;48.680;9.004;2022-08-19T00:43:24;19.70;99.90
10433;DHT22;5263;48.680;9.004;2022-08-19T00:45:52;19.60;99.90
10433;DHT22;5263;48.680;9.004;2022-08-19T00:48:19;19.60;99.90
10433;DHT22;5263;48.680;9.004;2022-08-19T00:50:47;19.60;99.90
10433;DHT22;5263;48.680;9.004;2022-08-19T00:53:16;19.60;99.90
10433;DHT22;5263;48.680;9.004;2022-08-19T00:55:50;19.60;99.90
10433;DHT22;5263;48.680;9.004;2022-08-19T00:58:22;19.70;99.90
10433;DHT22;5263;48.680;9.004;2022-08-19T01:00:49;19.70;99.90
10433;DHT22;5263;48.680;9.004;2022-08-19T01:03:18;19.60;99.90
10433;DHT22;5263;48.680;9.004;2022-08-19T01:05:45;19.70;99.90
10433;DHT22;5263;48.680;9.004;2022-08-19T01:08:11;19.70;99.90
10433;DHT22;5263;48.680;9.004;2022-08-19T01:10:41;19.70;99.90
10433;DHT22;5263;48.680;9.004;2022-08-19T01:13:09;19.80;99.90
10433;DHT22;5263;48.680;9.004;2022-08-19T01:15:42;19.80;99.90
10433;DHT22;5263;48.680;9.004;2022-08-19T01:18:12;19.80;99.90
10433;DHT22;5263;48.680;9.004;2022-08-19T01:20:39;19.70;99.90
10433;DHT22;5263;48.680;9.004;2022-08-19T01:23:05;19.60;99.90
10433;DHT22;5263;48.680;9.004;2022-08-19T01:25:46;19.60;99.90
10433;DHT22;5263;48.680;9.004;2022-08-19T01:28:18;19.50;99.90
10433;DHT22;5263;48.680;9.004;2022-08-19T01:30:45;19.50;99.90
10433;DHT22;5263;48.680;9.004;2022-08-19T01:33:12;19.60;99.90
10433;DHT22;5263;48.680;9.004;2022-08-19T01:35:37;19.50;99.90
10433;DHT22;5263;48.680;9.004;2022-08-19T01:38:06;19.50;99.90
10433;DHT22;5263;48.680;9.004;2022-08-19T01:40:36;19.50;99.90
10433;DHT22;5263;48.680;9.004;2022-08-19T01:43:03;19.40;99.90
10433;DHT22;5263;48.680;9.004;2022-08-19T01:45:32;19.50;99.90
10433;DHT22;5263;48.680;9.004;2022-08-19T01:47:59;19.40;99.90
10433;DHT22;5263;48.680;9.004;2022-08-19T01:50:25;19.30;99.90
10433;DHT22;5263;48.680;9.004;2022-08-19T01:52:51;19.30;99.90
10433;DHT22;5263;48.680;9.004;2022-08-19T01:55:20;19.30;99.90
10433;DHT22;5263;48.680;9.004;2022-08-19T01:57:52;19.20;99.90
10433;DHT22;5263;48.680;9.004;2022-08-19T02:00:22;19.20;99.90
10433;DHT22;5263;48.680;9.004;2022-08-19T02:02:48;19.30;99.90
10433;DHT22;5263;48.680;9.004;2022-08-19T02:05:14;19.20;99.90
10433;DHT22;5263;48.680;9.004;2022-08-19T02:07:43;19.10;99.90
10433;DHT22;5263;48.680;9.004;2022-08-19T02:10:14;19.00;99.90
10433;DHT22;5263;48.680;9.004;2022-08-19T02:12:41;19.00;99.90
10433;DHT22;5263;48.680;9.004;2022-08-19T02:15:07;19.10;99.90
10433;DHT22;5263;48.680;9.004;2022-08-19T02:17:33;19.10;99.90
10433;DHT22;5263;48.680;9.004;2022-08-19T02:19:59;19.10;99.90
10433;DHT22;5263;48.680;9.004;2022-08-19T02:22:26;19.10;99.90
10433;DHT22;5263;48.680;9.004;2022-08-19T02:24:52;19.10;99.90
10433;DHT22;5263;48.680;9.004;2022-08-19T02:27:18;18.90;99.90
10433;DHT22;5263;48.680;9.004;2022-08-19T02:29:46;19.00;99.90
10433;DHT22;5263;48.680;9.004;2022-08-19T02:32:12;19.10;99.90
10433;DHT22;5263;48.680;9.004;2022-08-19T02:34:39;19.10;99.90
10433;DHT22;5263;48.680;9.004;2022-08-19T02:37:04;18.90;99.90
10433;DHT22;5263;48.680;9.004;2022-08-19T02:39:30;18.90;99.90
10433;DHT22;5263;48.680;9.004;2022-08-19T02:41:56;19.00;99.90
10433;DHT22;5263;48.680;9.004;2022-08-19T02:44:21;18.80;99.90
10433;DHT22;5263;48.680;9.004;2022-08-19T02:46:47;18.80;99.90
10433;DHT22;5263;48.680;9.004;2022-08-19T02:49:15;19.00;99.90
10433;DHT22;5263;48.680;9.004;2022-08-19T02:51:43;19.00;99.90
10433;DHT22;5263;48.680;9.004;2022-08-19T02:54:11;19.00;99.90
10433;DHT22;5263;48.680;9.004;2022-08-19T02:56:39;19.00;99.90
10433;DHT22;5263;48.680;9.004;2022-08-19T02:59:06;19.00;99.90
10433;DHT22;5263;48.680;9.004;2022-08-19T03:01:35;18.90;99.90
10433;DHT22;5263;48.680;9.004;2022-08-19T03:04:03;19.00;99.90
10433;DHT22;5263;48.680;9.004;2022-08-19T03:06:30;18.90;99.90
10433;DHT22;5263;48.680;9.004;2022-08-19T03:08:56;18.90;99.90
10433;DHT22;5263;48.680;9.004;2022-08-19T03:11:26;18.90;99.90
10433;DHT22;5263;48.680;9.004;2022-08-19T03:13:52;19.00;99.90
10433;DHT22;5263;48.680;9.004;2022-08-19T03:16:20;18.90;99.90
10433;DHT22;5263;48.680;9.004;2022-08-19T03:18:46;18.90;99.90
10433;DHT22;5263;48.680;9.004;2022-08-19T03:21:23;19.00;99.90
10433;DHT22;5263;48.680;9.004;2022-08-19T03:23:49;18.80;99.90
10433;DHT22;5263;48.680;9.004;2022-08-19T03:26:16;18.90;99.90
10433;DHT22;5263;48.680;9.004;2022-08-19T03:28:43;18.90;99.90
10433;DHT22;5263;48.680;9.004;2022-08-19T03:31:13;18.90;99.90
10433;DHT22;5263;48.680;9.004;2022-08-19T03:33:40;18.70;99.90
10433;DHT22;5263;48.680;9.004;2022-08-19T03:36:14;18.80;99.90
10433;DHT22;5263;48.680;9.004;2022-08-19T03:38:47;18.80;99.90
10433;DHT22;5263;48.680;9.004;2022-08-19T03:41:35;18.70;99.90
10433;DHT22;5263;48.680;9.004;2022-08-19T03:44:03;18.60;99.90
10433;DHT22;5263;48.680;9.004;2022-08-19T03:46:32;18.50;99.90
10433;DHT22;5263;48.680;9.004;2022-08-19T03:49:01;18.50;99.90
10433;DHT22;5263;48.680;9.004;2022-08-19T03:51:38;18.60;99.90
10433;DHT22;5263;48.680;9.004;2022-08-19T03:54:09;18.50;99.90
10433;DHT22;5263;48.680;9.004;2022-08-19T03:56:36;18.50;99.90
10433;DHT22;5263;48.680;9.004;2022-08-19T03:59:03;18.40;99.90
10433;DHT22;5263;48.680;9.004;2022-08-19T04:01:29;18.20;99.90
10433;DHT22;5263;48.680;9.004;2022-08-19T04:03:59;18.40;99.90
10433;DHT22;5263;48.680;9.004;2022-08-19T04:06:28;18.50;99.90
10433;DHT22;5263;48.680;9.004;2022-08-19T04:08:54;18.60;99.90
10433;DHT22;5263;48.680;9.004;2022-08-19T04:11:26;18.60;99.90
10433;DHT22;5263;48.680;9.004;2022-08-19T04:13:53;18.60;99.90
10433;DHT22;5263;48.680;9.004;2022-08-19T04:16:23;18.50;99.90
10433;DHT22;5263;48.680;9.004;2022-08-19T04:18:50;18.50;99.90
10433;DHT22;5263;48.680;9.004;2022-08-19T04:21:21;18.50;99.90
10433;DHT22;5263;48.680;9.004;2022-08-19T04:23:48;18.60;99.90
10433;DHT22;5263;48.680;9.004;2022-08-19T04:26:20;18.60;99.90
10433;DHT22;5263;48.680;9.004;2022-08-19T04:28:46;18.50;99.90
10433;DHT22;5263;48.680;9.004;2022-08-19T04:31:19;18.30;99.90
10433;DHT22;5263;48.680;9.004;2022-08-19T04:33:45;18.50;99.90
10433;DHT22;5263;48.680;9.004;2022-08-19T04:36:29;18.60;99.90
10433;DHT22;5263;48.680;9.004;2022-08-19T04:39:02;18.50;99.90
10433;DHT22;5263;48.680;9.004;2022-08-19T04:41:28;18.60;99.90
10433;DHT22;5263;48.680;9.004;2022-08-19T04:44:13;18.50;99.90
10433;DHT22;5263;48.680;9.004;2022-08-19T04:46:39;18.50;99.90
10433;DHT22;5263;48.680;9.004;2022-08-19T04:49:06;18.50;99.90
10433;DHT22;5263;48.680;9.004;2022-08-19T04:51:33;18.60;99.90
10433;DHT22;5263;48.680;9.004;2022-08-19T04:53:59;18.50;99.90
10433;DHT22;5263;48.680;9.004;2022-08-19T04:56:27;18.60;99.90
10433;DHT22;5263;48.680;9.004;2022-08-19T04:58:54;18.60;99.90
10433;DHT22;5263;48.680;9.004;2022-08-19T05:01:26;18.50;99.90
10433;DHT22;5263;48.680;9.004;2022-08-19T05:03:54;18.70;99.90
10433;DHT22;5263;48.680;9.004;2022-08-19T05:06:21;18.60;99.90
10433;DHT22;5263;48.680;9.004;2022-08-19T05:08:47;18.60;99.90
10433;DHT22;5263;48.680;9.004;2022-08-19T05:11:20;18.60;99.90
10433;DHT22;5263;48.680;9.004;2022-08-19T05:13:47;18.60;99.90
10433;DHT22;5263;48.680;9.004;2022-08-19T05:16:16;18.70;99.90
10433;DHT22;5263;48.680;9.004;2022-08-19T05:18:42;18.70;99.90
10433;DHT22;5263;48.680;9.004;2022-08-19T05:21:27;18.70;99.90
10433;DHT22;5263;48.680;9.004;2022-08-19T05:24:12;18.60;99.90
10433;DHT22;5263;48.680;9.004;2022-08-19T05:26:41;18.60;99.90
10433;DHT22;5263;48.680;9.004;2022-08-19T05:29:08;18.60;99.90
10433;DHT22;5263;48.680;9.004;2022-08-19T05:31:35;18.60;99.90
10433;DHT22;5263;48.680;9.004;2022-08-19T05:34:01;18.80;99.90
10433;DHT22;5263;48.680;9.004;2022-08-19T05:36:35;18.80;99.90
10433;DHT22;5263;48.680;9.004;2022-08-19T05:39:03;18.90;99.90
10433;DHT22;5263;48.680;9.004;2022-08-19T05:41:29;18.90;99.90
10433;DHT22;5263;48.680;9.004;2022-08-19T05:43:57;18.80;99.90
10433;DHT22;5263;48.680;9.004;2022-08-19T05:46:23;18.90;99.90
10433;DHT22;5263;48.680;9.004;2022-08-19T05:48:49;18.80;99.90
10433;DHT22;5263;48.680;9.004;2022-08-19T05:51:16;18.80;99.90
10433;DHT22;5263;48.680;9.004;2022-08-19T05:53:42;18.70;99.90
10433;DHT22;5263;48.680;9.004;2022-08-19T05:56:12;18.80;99.90
10433;DHT22;5263;48.680;9.004;2022-08-19T05:58:38;18.70;99.90
10433;DHT22;5263;48.680;9.004;2022-08-19T06:01:17;18.80;99.90
10433;DHT22;5263;48.680;9.004;2022-08-19T06:03:44;18.80;99.90
10433;DHT22;5263;48.680;9.004;2022-08-19T06:06:11;18.80;99.90
10433;DHT22;5263;48.680;9.004;2022-08-19T06:08:37;18.80;99.90
10433;DHT22;5263;48.680;9.004;2022-08-19T06:11:25;18.80;99.90
10433;DHT22;5263;48.680;9.004;2022-08-19T06:13:59;18.80;99.90
10433;DHT22;5263;48.680;9.004;2022-08-19T06:16:26;18.80;99.90
10433;DHT22;5263;48.680;9.004;2022-08-19T06:18:52;18.80;99.90
10433;DHT22;5263;48.680;9.004;2022-08-19T06:21:20;18.80;99.90
10433;DHT22;5263;48.680;9.004;2022-08-19T06:23:47;18.70;99.90
10433;DHT22;5263;48.680;9.004;2022-08-19T06:26:15;18.80;99.90
10433;DHT22;5263;48.680;9.004;2022-08-19T06:28:41;18.90;99.90
10433;DHT22;5263;48.680;9.004;2022-08-19T06:31:21;18.90;99.90
10433;DHT22;5263;48.680;9.004;2022-08-19T06:33:48;19.00;99.90
10433;DHT22;5263;48.680;9.004;2022-08-19T06:36:35;19.00;99.90
10433;DHT22;5263;48.680;9.004;2022-08-19T06:39:03;19.00;99.90
10433;DHT22;5263;48.680;9.004;2022-08-19T06:41:30;19.00;99.90
10433;DHT22;5263;48.680;9.004;2022-08-19T06:43:57;19.10;99.90
10433;DHT22;5263;48.680;9.004;2022-08-19T06:46:23;19.10;99.90
10433;DHT22;5263;48.680;9.004;2022-08-19T06:48:49;19.10;99.90
10433;DHT22;5263;48.680;9.004;2022-08-19T06:51:16;19.10;99.90
10433;DHT22;5263;48.680;9.004;2022-08-19T06:53:47;19.10;99.90
10433;DHT22;5263;48.680;9.004;2022-08-19T06:56:18;19.20;99.90
10433;DHT22;5263;48.680;9.004;2022-08-19T06:58:44;19.20;99.90
10433;DHT22;5263;48.680;9.004;2022-08-19T07:01:09;19.20;99.90
10433;DHT22;5263;48.680;9.004;2022-08-19T07:03:36;19.20;99.90
10433;DHT22;5263;48.680;9.004;2022-08-19T07:06:08;19.30;99.90
10433;DHT22;5263;48.680;9.004;2022-08-19T07:08:35;19.40;99.90
10433;DHT22;5263;48.680;9.004;2022-08-19T07:11:10;19.40;99.90
10433;DHT22;5263;48.680;9.004;2022-08-19T07:13:37;19.50;99.90
10433;DHT22;5263;48.680;9.004;2022-08-19T07:16:05;19.50;99.90
10433;DHT22;5263;48.680;9.004;2022-08-19T07:18:31;19.50;99.90
10433;DHT22;5263;48.680;9.004;2022-08-19T07:21:17;19.60;99.90
10433;DHT22;5263;48.680;9.004;2022-08-19T07:23:43;19.70;99.90
10433;DHT22;5263;48.680;9.004;2022-08-19T07:26:20;19.80;99.90
10433;DHT22;5263;48.680;9.004;2022-08-19T07:28:47;19.80;99.90
10433;DHT22;5263;48.680;9.004;2022-08-19T07:31:15;20.00;99.90
10433;DHT22;5263;48.680;9.004;2022-08-19T07:33:44;20.00;99.90
10433;DHT22;5263;48.680;9.004;2022-08-19T07:36:11;20.10;99.90
10433;DHT22;5263;48.680;9.004;2022-08-19T07:38:39;20.10;99.90
10433;DHT22;5263;48.680;9.004;2022-08-19T07:41:06;20.20;99.90
10433;DHT22;5263;48.680;9.004;2022-08-19T07:43:32;20.00;99.90
10433;DHT22;5263;48.680;9.004;2022-08-19T07:45:58;20.00;99.90
10433;DHT22;5263;48.680;9.004;2022-08-19T07:48:26;19.90;99.90
10433;DHT22;5263;48.680;9.004;2022-08-19T07:50:53;19.90;99.90
10433;DHT22;5263;48.680;9.004;2022-08-19T07:53:21;19.90;99.90
10433;DHT22;5263;48.680;9.004;2022-08-19T07:55:47;19.80;99.90
10433;DHT22;5263;48.680;9.004;2022-08-19T07:58:15;19.80;99.90
10433;DHT22;5263;48.680;9.004;2022-08-19T08:00:43;19.80;99.90
10433;DHT22;5263;48.680;9.004;2022-08-19T08:03:10;19.90;99.90
10433;DHT22;5263;48.680;9.004;2022-08-19T08:05:36;19.80;99.90
10433;DHT22;5263;48.680;9.004;2022-08-19T08:08:20;19.80;99.90
10433;DHT22;5263;48.680;9.004;2022-08-19T08:11:04;19.70;99.90
10433;DHT22;5263;48.680;9.004;2022-08-19T08:13:31;19.70;99.90
10433;DHT22;5263;48.680;9.004;2022-08-19T08:15:58;19.60;99.90
10433;DHT22;5263;48.680;9.004;2022-08-19T08:18:24;19.70;99.90
10433;DHT22;5263;48.680;9.004;2022-08-19T08:20:50;19.70;99.90
10433;DHT22;5263;48.680;9.004;2022-08-19T08:23:15;19.60;99.90
10433;DHT22;5263;48.680;9.004;2022-08-19T08:25:52;19.60;99.90
10433;DHT22;5263;48.680;9.004;2022-08-19T08:28:19;19.40;99.90
10433;DHT22;5263;48.680;9.004;2022-08-19T08:30:46;19.30;99.90
10433;DHT22;5263;48.680;9.004;2022-08-19T08:33:13;19.30;99.90
10433;DHT22;5263;48.680;9.004;2022-08-19T08:35:40;19.20;99.90
10433;DHT22;5263;48.680;9.004;2022-08-19T08:38:07;19.20;99.90
10433;DHT22;5263;48.680;9.004;2022-08-19T08:40:45;19.20;99.90
10433;DHT22;5263;48.680;9.004;2022-08-19T08:43:24;19.20;99.90
10433;DHT22;5263;48.680;9.004;2022-08-19T08:46:13;19.20;99.90
10433;DHT22;5263;48.680;9.004;2022-08-19T08:48:54;19.20;99.90
10433;DHT22;5263;48.680;9.004;2022-08-19T08:51:36;19.10;99.90
10433;DHT22;5263;48.680;9.004;2022-08-19T08:54:06;19.10;99.90
10433;DHT22;5263;48.680;9.004;2022-08-19T08:56:32;19.10;99.90
10433;DHT22;5263;48.680;9.004;2022-08-19T09:01:38;19.30;99.90
10433;DHT22;5263;48.680;9.004;2022-08-19T09:04:07;19.50;99.90
10433;DHT22;5263;48.680;9.004;2022-08-19T09:06:51;19.60;99.90
10433;DHT22;5263;48.680;9.004;2022-08-19T09:09:36;19.60;99.90
10433;DHT22;5263;48.680;9.004;2022-08-19T09:12:10;19.70;99.90
10433;DHT22;5263;48.680;9.004;2022-08-19T09:15:06;19.80;99.90
10433;DHT22;5263;48.680;9.004;2022-08-19T09:17:32;19.90;99.90
10433;DHT22;5263;48.680;9.004;2022-08-19T09:20:18;19.90;99.90
10433;DHT22;5263;48.680;9.004;2022-08-19T09:22:44;20.00;99.90
10433;DHT22;5263;48.680;9.004;2022-08-19T09:25:12;19.90;99.90
10433;DHT22;5263;48.680;9.004;2022-08-19T09:27:40;20.00;99.90
10433;DHT22;5263;48.680;9.004;2022-08-19T09:30:07;20.10;99.90
10433;DHT22;5263;48.680;9.004;2022-08-19T09:32:33;20.20;99.90
10433;DHT22;5263;48.680;9.004;2022-08-19T09:34:59;20.20;99.90
10433;DHT22;5263;48.680;9.004;2022-08-19T09:37:26;20.20;99.90
10433;DHT22;5263;48.680;9.004;2022-08-19T09:39:52;20.20;99.90
10433;DHT22;5263;48.680;9.004;2022-08-19T09:42:18;20.20;99.90
10433;DHT22;5263;48.680;9.004;2022-08-19T09:44:44;20.20;99.90
10433;DHT22;5263;48.680;9.004;2022-08-19T09:47:11;20.20;99.90
10433;DHT22;5263;48.680;9.004;2022-08-19T09:49:38;20.20;99.90
10433;DHT22;5263;48.680;9.004;2022-08-19T09:52:05;20.30;99.90
10433;DHT22;5263;48.680;9.004;2022-08-19T09:54:31;20.30;99.90
10433;DHT22;5263;48.680;9.004;2022-08-19T09:57:00;20.30;99.90
10433;DHT22;5263;48.680;9.004;2022-08-19T09:59:26;20.30;99.90
10433;DHT22;5263;48.680;9.004;2022-08-19T10:01:53;20.40;99.90
10433;DHT22;5263;48.680;9.004;2022-08-19T10:04:19;20.40;99.90
10433;DHT22;5263;48.680;9.004;2022-08-19T10:06:47;20.50;99.90
10433;DHT22;5263;48.680;9.004;2022-08-19T10:09:15;20.40;99.90
10433;DHT22;5263;48.680;9.004;2022-08-19T10:11:43;20.40;99.90
10433;DHT22;5263;48.680;9.004;2022-08-19T10:14:13;20.50;99.90
10433;DHT22;5263;48.680;9.004;2022-08-19T10:16:39;20.70;99.90
10433;DHT22;5263;48.680;9.004;2022-08-19T10:19:06;20.60;99.90
10433;DHT22;5263;48.680;9.004;2022-08-19T10:21:33;20.70;99.90
10433;DHT22;5263;48.680;9.004;2022-08-19T10:24:01;20.70;99.90
10433;DHT22;5263;48.680;9.004;2022-08-19T10:26:35;20.60;99.90
10433;DHT22;5263;48.680;9.004;2022-08-19T10:29:03;20.70;99.90
10433;DHT22;5263;48.680;9.004;2022-08-19T10:31:31;20.70;99.90
10433;DHT22;5263;48.680;9.004;2022-08-19T10:33:58;20.70;99.90
10433;DHT22;5263;48.680;9.004;2022-08-19T10:36:29;20.70;99.90
10433;DHT22;5263;48.680;9.004;2022-08-19T10:38:57;20.60;99.90
10433;DHT22;5263;48.680;9.004;2022-08-19T10:41:26;20.80;99.90
10433;DHT22;5263;48.680;9.004;2022-08-19T10:43:54;20.90;99.90
10433;DHT22;5263;48.680;9.004;2022-08-19T10:46:21;21.00;99.90
10433;DHT22;5263;48.680;9.004;2022-08-19T10:48:49;21.00;99.90
10433;DHT22;5263;48.680;9.004;2022-08-19T10:51:14;21.00;99.90
10433;DHT22;5263;48.680;9.004;2022-08-19T10:53:59;20.90;99.90
10433;DHT22;5263;48.680;9.004;2022-08-19T10:56:26;20.90;99.90
10433;DHT22;5263;48.680;9.004;2022-08-19T10:59:28;20.90;99.90
10433;DHT22;5263;48.680;9.004;2022-08-19T11:01:59;21.00;99.90
10433;DHT22;5263;48.680;9.004;2022-08-19T11:04:25;21.10;99.90
10433;DHT22;5263;48.680;9.004;2022-08-19T11:06:51;21.30;99.90
10433;DHT22;5263;48.680;9.004;2022-08-19T11:09:19;21.40;99.90
10433;DHT22;5263;48.680;9.004;2022-08-19T11:11:45;21.40;99.90
10433;DHT22;5263;48.680;9.004;2022-08-19T11:14:14;21.60;99.90
10433;DHT22;5263;48.680;9.004;2022-08-19T11:16:42;21.70;99.90
10433;DHT22;5263;48.680;9.004;2022-08-19T11:19:09;21.70;99.90
10433;DHT22;5263;48.680;9.004;2022-08-19T11:21:41;21.90;99.90
10433;DHT22;5263;48.680;9.004;2022-08-19T11:24:10;21.90;99.90
10433;DHT22;5263;48.680;9.004;2022-08-19T11:26:38;22.10;99.90
10433;DHT22;5263;48.680;9.004;2022-08-19T11:29:05;22.20;99.90
10433;DHT22;5263;48.680;9.004;2022-08-19T11:31:34;22.20;99.90
10433;DHT22;5263;48.680;9.004;2022-08-19T11:34:02;22.20;99.90
10433;DHT22;5263;48.680;9.004;2022-08-19T11:36:29;22.20;99.90
10433;DHT22;5263;48.680;9.004;2022-08-19T11:38:55;22.10;99.90
10433;DHT22;5263;48.680;9.004;2022-08-19T11:41:22;22.00;99.90
10433;DHT22;5263;48.680;9.004;2022-08-19T11:43:52;22.00;99.90
10433;DHT22;5263;48.680;9.004;2022-08-19T11:46:22;21.90;99.90
10433;DHT22;5263;48.680;9.004;2022-08-19T11:48:48;21.90;99.90
10433;DHT22;5263;48.680;9.004;2022-08-19T11:51:20;21.90;99.90
10433;DHT22;5263;48.680;9.004;2022-08-19T11:53:47;22.00;99.90
10433;DHT22;5263;48.680;9.004;2022-08-19T11:56:14;21.90;99.90
10433;DHT22;5263;48.680;9.004;2022-08-19T11:58:40;21.90;99.90
10433;DHT22;5263;48.680;9.004;2022-08-19T12:01:11;21.90;99.90
10433;DHT22;5263;48.680;9.004;2022-08-19T12:03:37;21.90;99.90
10433;DHT22;5263;48.680;9.004;2022-08-19T12:06:08;21.90;99.90
10433;DHT22;5263;48.680;9.004;2022-08-19T12:08:35;22.00;99.90
10433;DHT22;5263;48.680;9.004;2022-08-19T12:11:00;22.00;99.90
10433;DHT22;5263;48.680;9.004;2022-08-19T12:13:30;22.10;99.90
10433;DHT22;5263;48.680;9.004;2022-08-19T12:15:56;22.10;99.90
10433;DHT22;5263;48.680;9.004;2022-08-19T12:18:22;22.10;99.90
10433;DHT22;5263;48.680;9.004;2022-08-19T12:20:51;22.10;99.90
10433;DHT22;5263;48.680;9.004;2022-08-19T12:23:17;22.20;99.90
10433;DHT22;5263;48.680;9.004;2022-08-19T12:25:47;22.10;99.90
10433;DHT22;5263;48.680;9.004;2022-08-19T12:28:21;22.30;99.90
10433;DHT22;5263;48.680;9.004;2022-08-19T12:30:47;22.60;99.90
10433;DHT22;5263;48.680;9.004;2022-08-19T12:33:14;22.90;99.90
10433;DHT22;5263;48.680;9.004;2022-08-19T12:35:41;23.20;99.90
10433;DHT22;5263;48.680;9.004;2022-08-19T12:38:08;23.40;99.90
10433;DHT22;5263;48.680;9.004;2022-08-19T12:40:33;23.70;99.90
10433;DHT22;5263;48.680;9.004;2022-08-19T12:42:59;23.70;99.90
10433;DHT22;5263;48.680;9.004;2022-08-19T12:45:25;23.60;99.90
10433;DHT22;5263;48.680;9.004;2022-08-19T12:47:51;23.50;99.90
10433;DHT22;5263;48.680;9.004;2022-08-19T12:50:18;23.40;99.90
10433;DHT22;5263;48.680;9.004;2022-08-19T12:52:46;23.40;99.90
10433;DHT22;5263;48.680;9.004;2022-08-19T12:55:12;23.50;99.90
10433;DHT22;5263;48.680;9.004;2022-08-19T12:57:38;23.40;99.90
10433;DHT22;5263;48.680;9.004;2022-08-19T13:00:14;23.40;99.90
10433;DHT22;5263;48.680;9.004;2022-08-19T13:02:42;23.40;99.90
10433;DHT22;5263;48.680;9.004;2022-08-19T13:05:12;23.40;99.90
10433;DHT22;5263;48.680;9.004;2022-08-19T13:07:39;23.40;99.90
10433;DHT22;5263;48.680;9.004;2022-08-19T13:10:10;23.40;99.90
10433;DHT22;5263;48.680;9.004;2022-08-19T13:12:38;23.30;99.90
10433;DHT22;5263;48.680;9.004;2022-08-19T13:15:04;23.40;99.90
10433;DHT22;5263;48.680;9.004;2022-08-19T13:17:30;23.40;99.90
10433;DHT22;5263;48.680;9.004;2022-08-19T13:19:56;23.40;99.90
10433;DHT22;5263;48.680;9.004;2022-08-19T13:22:21;23.40;99.90
10433;DHT22;5263;48.680;9.004;2022-08-19T13:24:47;23.50;99.90
10433;DHT22;5263;48.680;9.004;2022-08-19T13:27:14;23.80;99.90
10433;DHT22;5263;48.680;9.004;2022-08-19T13:29:40;23.90;99.90
10433;DHT22;5263;48.680;9.004;2022-08-19T13:32:25;24.10;99.90
10433;DHT22;5263;48.680;9.004;2022-08-19T13:35:09;24.20;99.90
10433;DHT22;5263;48.680;9.004;2022-08-19T13:37:35;24.00;99.80
10433;DHT22;5263;48.680;9.004;2022-08-19T13:40:16;24.10;99.60
10433;DHT22;5263;48.680;9.004;2022-08-19T13:42:45;24.20;99.50
10433;DHT22;5263;48.680;9.004;2022-08-19T13:45:11;24.20;99.90
10433;DHT22;5263;48.680;9.004;2022-08-19T13:47:38;24.00;99.90
10433;DHT22;5263;48.680;9.004;2022-08-19T13:50:24;23.90;99.90
10433;DHT22;5263;48.680;9.004;2022-08-19T13:52:59;23.80;99.90
10433;DHT22;5263;48.680;9.004;2022-08-19T13:55:25;23.70;99.90
10433;DHT22;5263;48.680;9.004;2022-08-19T13:57:57;24.00;99.90
10433;DHT22;5263;48.680;9.004;2022-08-19T14:00:24;24.20;99.90
10433;DHT22;5263;48.680;9.004;2022-08-19T14:02:55;24.10;99.90
10433;DHT22;5263;48.680;9.004;2022-08-19T14:05:22;24.00;99.90
10433;DHT22;5263;48.680;9.004;2022-08-19T14:07:48;23.90;99.90
10433;DHT22;5263;48.680;9.004;2022-08-19T14:10:14;23.80;99.90
10433;DHT22;5263;48.680;9.004;2022-08-19T14:12:40;23.80;99.90
10433;DHT22;5263;48.680;9.004;2022-08-19T14:15:07;23.90;99.90
10433;DHT22;5263;48.680;9.004;2022-08-19T14:17:33;24.40;99.90
10433;DHT22;5263;48.680;9.004;2022-08-19T14:20:02;25.20;99.70
10433;DHT22;5263;48.680;9.004;2022-08-19T14:22:36;25.60;98.90
10433;DHT22;5263;48.680;9.004;2022-08-19T14:25:03;25.60;98.30
10433;DHT22;5263;48.680;9.004;2022-08-19T14:27:32;25.40;97.80
10433;DHT22;5263;48.680;9.004;2022-08-19T14:29:58;25.20;97.50
10433;DHT22;5263;48.680;9.004;2022-08-19T14:32:23;24.90;97.10
10433;DHT22;5263;48.680;9.004;2022-08-19T14:34:52;24.40;97.50
10433;DHT22;5263;48.680;9.004;2022-08-19T14:37:18;24.10;98.00
10433;DHT22;5263;48.680;9.004;2022-08-19T14:39:44;23.90;98.40
10433;DHT22;5263;48.680;9.004;2022-08-19T14:42:11;23.70;98.60
10433;DHT22;5263;48.680;9.004;2022-08-19T14:44:37;23.60;99.10
10433;DHT22;5263;48.680;9.004;2022-08-19T14:47:03;23.60;98.90
10433;DHT22;5263;48.680;9.004;2022-08-19T14:49:29;23.60;99.40
10433;DHT22;5263;48.680;9.004;2022-08-19T14:51:54;23.60;99.00
10433;DHT22;5263;48.680;9.004;2022-08-19T14:54:20;23.70;98.90
10433;DHT22;5263;48.680;9.004;2022-08-19T14:56:46;23.80;98.70
10433;DHT22;5263;48.680;9.004;2022-08-19T14:59:13;24.00;98.80
10433;DHT22;5263;48.680;9.004;2022-08-19T15:01:39;24.00;98.60
10433;DHT22;5263;48.680;9.004;2022-08-19T15:04:04;24.10;98.10
10433;DHT22;5263;48.680;9.004;2022-08-19T15:06:30;24.10;98.20
10433;DHT22;5263;48.680;9.004;2022-08-19T15:08:57;24.10;97.80
10433;DHT22;5263;48.680;9.004;2022-08-19T15:11:24;24.10;97.40
10433;DHT22;5263;48.680;9.004;2022-08-19T15:13:51;24.10;97.40
10433;DHT22;5263;48.680;9.004;2022-08-19T15:16:20;24.20;97.50
10433;DHT22;5263;48.680;9.004;2022-08-19T15:18:48;24.20;97.60
10433;DHT22;5263;48.680;9.004;2022-08-19T15:21:15;24.40;97.60
10433;DHT22;5263;48.680;9.004;2022-08-19T15:23:45;24.50;96.80
10433;DHT22;5263;48.680;9.004;2022-08-19T15:26:11;24.50;96.80
10433;DHT22;5263;48.680;9.004;2022-08-19T15:28:36;24.60;96.90
10433;DHT22;5263;48.680;9.004;2022-08-19T15:31:03;24.80;96.30
10433;DHT22;5263;48.680;9.004;2022-08-19T15:33:32;25.00;96.20
10433;DHT22;5263;48.680;9.004;2022-08-19T15:36:00;25.10;95.50
10433;DHT22;5263;48.680;9.004;2022-08-19T15:38:26;25.30;95.40
10433;DHT22;5263;48.680;9.004;2022-08-19T15:40:52;25.50;94.70
10433;DHT22;5263;48.680;9.004;2022-08-19T15:43:19;25.50;94.70
10433;DHT22;5263;48.680;9.004;2022-08-19T15:45:49;25.50;94.80
10433;DHT22;5263;48.680;9.004;2022-08-19T15:48:14;25.70;94.70
10433;DHT22;5263;48.680;9.004;2022-08-19T15:50:40;25.50;94.10
10433;DHT22;5263;48.680;9.004;2022-08-19T15:53:08;25.40;93.80
10433;DHT22;5263;48.680;9.004;2022-08-19T15:55:37;25.50;94.30
10433;DHT22;5263;48.680;9.004;2022-08-19T15:58:08;25.60;94.40